Time;durP1;ratioP1;P1;durP2;ratioP2;P2;SDS_P1;SDS_P2;PMS_P1;PMS_P2;Temp;Humidity;BMP_temperature;BMP_pressure;BME280_temperature;BME280_humidity;BME280_pressure;Samples;Min_cycle;Max_cycle;Signal;HPM_P1;HPM_P2
2024/03/19 00:02:15;;;;;;;28.10;20.20;;;;;;;1.79;100.00;99275.85;109504;1251;59839;-71
2024/03/19 00:04:42;;;;;;;26.00;20.30;;;;;;;1.79;100.00;99272.71;109518;1251;60033;-71
2024/03/19 00:07:08;;;;;;;28.60;21.10;;;;;;;1.80;100.00;99275.86;109494;1251;59898;-72
2024/03/19 00:09:35;;;;;;;28.70;21.30;;;;;;;1.79;100.00;99277.97;109547;1251;59825;-71
2024/03/19 00:12:01;;;;;;;25.50;20.00;;;;;;;1.77;100.00;99279.77;109486;1251;59843;-71
2024/03/19 00:14:27;;;;;;;32.80;20.80;;;;;;;1.76;100.00;99275.94;109505;1251;59796;-71
2024/03/19 00:16:54;;;;;;;28.40;22.10;;;;;;;1.75;100.00;99276.68;109524;1251;59854;-70
2024/03/19 00:19:20;;;;;;;30.20;21.40;;;;;;;1.74;100.00;99272.67;109515;1251;59832;-71
2024/03/19 00:21:46;;;;;;;27.20;20.80;;;;;;;1.72;100.00;99273.26;109566;1251;60102;-72
2024/03/19 00:24:13;;;;;;;28.90;20.60;;;;;;;1.70;100.00;99277.31;109469;1251;59795;-71
2024/03/19 00:26:40;;;;;;;31.10;22.30;;;;;;;1.68;100.00;99274.05;109521;1251;59728;-70
2024/03/19 00:29:07;;;;;;;29.70;21.70;;;;;;;1.66;100.00;99275.15;109544;1251;59843;-71
2024/03/19 00:31:34;;;;;;;27.50;19.80;;;;;;;1.64;100.00;99273.98;109513;1251;59810;-71
2024/03/19 00:34:01;;;;;;;28.80;20.90;;;;;;;1.62;100.00;99274.56;109507;1251;59757;-71
2024/03/19 00:36:27;;;;;;;28.60;20.80;;;;;;;1.60;100.00;99274.27;109508;1251;64067;-71
2024/03/19 00:38:54;;;;;;;27.60;21.20;;;;;;;1.60;100.00;99277.24;109485;1251;60028;-71
2024/03/19 00:41:20;;;;;;;27.40;20.70;;;;;;;1.60;100.00;99276.89;109522;1251;59898;-72
2024/03/19 00:43:47;;;;;;;28.20;21.70;;;;;;;1.59;100.00;99275.85;109560;1251;66561;-72
2024/03/19 00:46:13;;;;;;;29.40;21.00;;;;;;;1.59;100.00;99274.10;109555;1251;59815;-72
2024/03/19 00:48:40;;;;;;;31.40;22.00;;;;;;;1.60;100.00;99272.35;109536;1251;59875;-72
2024/03/19 00:51:06;;;;;;;30.50;21.70;;;;;;;1.61;100.00;99275.66;109474;1251;59853;-72
2024/03/19 00:53:32;;;;;;;31.20;22.50;;;;;;;1.61;100.00;99273.02;109520;1251;59912;-71
2024/03/19 00:55:59;;;;;;;29.50;22.30;;;;;;;1.61;100.00;99274.41;109540;1251;59830;-71
2024/03/19 00:58:25;;;;;;;30.40;22.30;;;;;;;1.61;100.00;99277.05;109539;1251;60594;-71
2024/03/19 01:00:52;;;;;;;34.20;23.20;;;;;;;1.61;100.00;99277.23;109524;1251;59857;-71
2024/03/19 01:03:20;;;;;;;33.40;23.50;;;;;;;1.61;100.00;99275.83;109521;1251;60016;-71
2024/03/19 01:05:47;;;;;;;34.30;23.80;;;;;;;1.61;100.00;99276.52;109506;1251;59795;-72
2024/03/19 01:08:13;;;;;;;31.40;22.90;;;;;;;1.62;100.00;99274.05;108778;1251;1002058;-71
2024/03/19 01:10:41;;;;;;;35.60;24.00;;;;;;;1.60;100.00;99273.23;109570;1250;60047;-71
2024/03/19 01:13:08;;;;;;;31.50;24.60;;;;;;;1.60;100.00;99274.62;109424;1251;64084;-71
2024/03/19 01:15:34;;;;;;;35.50;22.80;;;;;;;1.60;100.00;99275.83;109532;1251;59779;-71
2024/03/19 01:18:00;;;;;;;30.20;22.40;;;;;;;1.61;100.00;99276.88;109550;1251;59955;-72
2024/03/19 01:20:27;;;;;;;33.10;23.70;;;;;;;1.61;100.00;99273.02;109551;1251;59752;-71
2024/03/19 01:22:53;;;;;;;30.80;22.70;;;;;;;1.61;100.00;99274.77;109498;1251;59736;-71
2024/03/19 01:25:19;;;;;;;34.20;23.40;;;;;;;1.61;100.00;99275.29;109486;1251;59957;-71
2024/03/19 01:27:46;;;;;;;30.90;21.60;;;;;;;1.61;100.00;99273.36;109507;1251;59837;-72
2024/03/19 01:30:12;;;;;;;33.60;24.20;;;;;;;1.61;100.00;99276.52;109505;1251;59724;-71
2024/03/19 01:32:39;;;;;;;36.90;24.10;;;;;;;1.61;100.00;99274.59;109269;1251;60051;-72
2024/03/19 01:35:05;;;;;;;30.80;22.80;;;;;;;1.60;100.00;99274.09;109521;1251;60018;-72
2024/03/19 01:37:32;;;;;;;31.80;23.70;;;;;;;1.60;100.00;99274.27;109517;1251;59801;-71
2024/03/19 01:39:58;;;;;;;31.00;22.20;;;;;;;1.60;100.00;99273.20;109473;1251;59868;-72
2024/03/19 01:42:25;;;;;;;32.30;21.70;;;;;;;1.63;100.00;99278.03;109305;1251;59985;-71
2024/03/19 01:45:07;;;;;;;33.10;23.60;;;;;;;1.64;100.00;99275.37;109482;1250;59739;-71
2024/03/19 01:47:36;;;;;;;27.50;21.60;;;;;;;1.66;100.00;99276.03;108772;1251;1002316;-71
2024/03/19 01:50:09;;;;;;;34.80;23.70;;;;;;;1.67;100.00;99274.95;109500;1251;64090;-70
2024/03/19 01:52:40;;;;;;;33.60;23.00;;;;;;;1.68;100.00;99269.67;109445;1251;60060;-71
2024/03/19 01:55:07;;;;;;;32.70;23.70;;;;;;;1.67;100.00;99273.70;109515;1251;59805;-71
2024/03/19 01:57:34;;;;;;;34.50;22.90;;;;;;;1.66;100.00;99276.38;109525;1250;65503;-71
2024/03/19 02:00:00;;;;;;;35.70;24.30;;;;;;;1.65;100.00;99274.30;109539;1251;60468;-72
2024/03/19 02:02:31;;;;;;;35.30;25.10;;;;;;;1.63;100.00;99274.35;109495;1251;65565;-71
2024/03/19 02:04:59;;;;;;;36.70;24.80;;;;;;;1.62;100.00;99276.30;109538;1251;59793;-71
2024/03/19 02:07:26;;;;;;;33.50;24.30;;;;;;;1.60;100.00;99274.61;109452;1251;59852;-71
2024/03/19 02:09:55;;;;;;;34.10;24.20;;;;;;;1.61;100.00;99275.64;108753;1251;1002104;-71
2024/03/19 02:12:25;;;;;;;34.90;24.80;;;;;;;1.61;100.00;99275.83;109524;1251;60160;-72
2024/03/19 02:14:52;;;;;;;34.10;23.10;;;;;;;1.59;100.00;99273.05;109518;1251;70893;-71
2024/03/19 02:17:20;;;;;;;34.80;24.90;;;;;;;1.58;100.00;99275.55;109362;1251;59820;-71
2024/03/19 02:19:46;;;;;;;34.60;23.70;;;;;;;1.56;100.00;99273.48;109565;1251;59925;-71
2024/03/19 02:22:13;;;;;;;36.40;25.20;;;;;;;1.55;100.00;99270.88;109511;1251;65527;-71
2024/03/19 02:24:43;;;;;;;30.50;22.80;;;;;;;1.55;100.00;99273.51;109317;1251;59854;-71
2024/03/19 02:27:11;;;;;;;30.80;23.50;;;;;;;1.54;100.00;99275.48;109497;1251;62874;-72
2024/03/19 02:29:38;;;;;;;31.60;23.40;;;;;;;1.53;100.00;99277.94;109541;1251;59771;-71
2024/03/19 02:32:05;;;;;;;33.30;24.30;;;;;;;1.54;100.00;99280.19;109496;1253;59854;-71
2024/03/19 02:34:31;;;;;;;31.40;22.00;;;;;;;1.55;100.00;99281.91;109498;1251;68053;-72
2024/03/19 02:36:58;;;;;;;31.90;23.00;;;;;;;1.56;100.00;99284.17;109489;1251;60103;-71
2024/03/19 02:39:24;;;;;;;33.30;23.00;;;;;;;1.57;100.00;99289.94;109491;1251;59823;-71
2024/03/19 02:41:51;;;;;;;28.20;20.40;;;;;;;1.57;100.00;99287.84;109504;1251;59806;-71
2024/03/19 02:44:18;;;;;;;30.70;22.10;;;;;;;1.55;100.00;99285.94;109352;1251;59886;-71
2024/03/19 02:46:44;;;;;;;27.70;21.00;;;;;;;1.53;100.00;99285.98;109479;1255;59763;-72
2024/03/19 02:49:11;;;;;;;30.00;22.10;;;;;;;1.51;100.00;99284.80;109462;1251;59719;-72
2024/03/19 02:51:37;;;;;;;33.90;23.00;;;;;;;1.51;100.00;99288.66;109522;1251;59870;-71
2024/03/19 02:54:03;;;;;;;33.40;23.10;;;;;;;1.53;100.00;99288.98;109304;1251;60048;-71
2024/03/19 02:56:30;;;;;;;35.30;23.20;;;;;;;1.53;100.00;99288.61;109467;1251;60039;-71
2024/03/19 02:58:56;;;;;;;30.80;22.20;;;;;;;1.54;100.00;99290.00;109484;1251;60062;-71
2024/03/19 03:01:22;;;;;;;30.00;22.30;;;;;;;1.54;100.00;99293.15;109474;1251;60306;-72
2024/03/19 03:03:49;;;;;;;32.90;23.20;;;;;;;1.53;100.00;99288.79;109535;1251;59872;-72
2024/03/19 03:06:15;;;;;;;33.20;23.00;;;;;;;1.54;100.00;99289.11;109519;1251;60096;-71
2024/03/19 03:08:41;;;;;;;29.00;20.40;;;;;;;1.53;100.00;99287.77;109520;1251;59736;-71
2024/03/19 03:11:08;;;;;;;31.90;22.20;;;;;;;1.53;100.00;99290.72;109507;1251;59828;-71
2024/03/19 03:13:35;;;;;;;35.80;24.40;;;;;;;1.52;100.00;99288.48;109523;1251;60205;-71
2024/03/19 03:16:01;;;;;;;28.40;22.10;;;;;;;1.53;100.00;99293.36;109395;1251;60204;-71
2024/03/19 03:18:28;;;;;;;33.70;21.90;;;;;;;1.54;100.00;99295.79;109486;1251;59837;-71
2024/03/19 03:20:54;;;;;;;34.40;23.50;;;;;;;1.55;100.00;99298.02;109507;1251;59859;-71
2024/03/19 03:23:20;;;;;;;30.80;23.90;;;;;;;1.55;100.00;99298.03;109536;1250;60060;-72
2024/03/19 03:25:47;;;;;;;32.00;21.30;;;;;;;1.54;100.00;99297.70;109523;1251;59791;-71
2024/03/19 03:28:13;;;;;;;30.00;22.60;;;;;;;1.53;100.00;99299.29;109497;1251;59889;-71
2024/03/19 03:30:41;;;;;;;31.10;23.70;;;;;;;1.53;100.00;99301.75;109502;1251;60076;-71
2024/03/19 03:33:07;;;;;;;33.90;23.20;;;;;;;1.54;100.00;99307.51;109513;1251;59759;-71
2024/03/19 03:35:33;;;;;;;29.00;21.00;;;;;;;1.55;100.00;99309.05;109303;1251;60124;-71
2024/03/19 03:38:00;;;;;;;36.50;24.30;;;;;;;1.55;100.00;99308.01;109525;1251;59716;-71
2024/03/19 03:40:27;;;;;;;29.80;23.10;;;;;;;1.56;100.00;99312.73;109493;1251;59852;-71
2024/03/19 03:42:53;;;;;;;36.30;25.10;;;;;;;1.56;100.00;99317.11;109473;1251;59923;-71
2024/03/19 03:45:21;;;;;;;34.50;22.20;;;;;;;1.56;100.00;99317.45;109530;1251;59838;-73
2024/03/19 03:47:48;;;;;;;31.20;22.90;;;;;;;1.56;100.00;99320.09;109500;1251;66563;-72
2024/03/19 03:50:16;;;;;;;34.00;24.60;;;;;;;1.56;100.00;99321.84;109493;1252;60212;-72
2024/03/19 03:52:42;;;;;;;33.60;23.80;;;;;;;1.56;100.00;99324.45;109135;1253;62727;-71
2024/03/19 03:55:10;;;;;;;34.40;25.00;;;;;;;1.56;100.00;99322.53;109422;1253;60160;-71
2024/03/19 03:57:38;;;;;;;42.20;28.50;;;;;;;1.57;100.00;99325.13;109501;1252;59888;-70
2024/03/19 04:00:10;;;;;;;39.30;27.00;;;;;;;1.58;100.00;99327.21;109490;1252;66899;-71
2024/03/19 04:02:40;;;;;;;43.70;29.40;;;;;;;1.58;100.00;99328.79;109493;1252;60195;-71
2024/03/19 04:05:08;;;;;;;42.00;28.90;;;;;;;1.59;100.00;99333.65;109459;1252;62496;-71
2024/03/19 04:07:39;;;;;;;44.30;29.20;;;;;;;1.61;100.00;99335.02;109442;1253;59839;-72
2024/03/19 04:10:11;;;;;;;40.70;27.80;;;;;;;1.61;100.00;99337.97;109253;1252;59904;-71
2024/03/19 04:12:37;;;;;;;43.90;28.50;;;;;;;1.62;100.00;99341.98;109462;1252;66871;-71
2024/03/19 04:15:05;;;;;;;40.10;29.30;;;;;;;1.64;100.00;99342.45;109437;1253;59833;-71
2024/03/19 04:17:33;;;;;;;43.20;29.00;;;;;;;1.64;100.00;99341.58;109131;1252;63805;-71
2024/03/19 04:20:00;;;;;;;41.50;29.10;;;;;;;1.63;100.00;99344.06;109446;1252;59762;-71
2024/03/19 04:22:26;;;;;;;33.50;24.90;;;;;;;1.63;100.00;99345.45;109503;1252;60133;-71
2024/03/19 04:24:53;;;;;;;37.90;27.20;;;;;;;1.63;100.00;99346.88;109441;1252;66526;-70
2024/03/19 04:27:19;;;;;;;36.20;24.60;;;;;;;1.61;100.00;99349.19;109442;1252;59925;-71
2024/03/19 04:29:47;;;;;;;34.00;23.80;;;;;;;1.61;100.00;99349.02;109288;1252;59750;-71
2024/03/19 04:32:14;;;;;;;34.90;24.80;;;;;;;1.61;100.00;99349.03;109471;1252;60042;-70
2024/03/19 04:34:40;;;;;;;31.70;23.30;;;;;;;1.62;100.00;99350.73;109484;1252;59836;-72
2024/03/19 04:37:07;;;;;;;30.40;22.40;;;;;;;1.63;100.00;99352.81;109412;1252;59802;-71
2024/03/19 04:39:33;;;;;;;35.30;22.80;;;;;;;1.62;100.00;99355.80;109480;1252;59945;-71
2024/03/19 04:41:59;;;;;;;33.20;21.80;;;;;;;1.61;100.00;99358.13;109436;1252;59856;-70
2024/03/19 04:44:26;;;;;;;32.30;23.90;;;;;;;1.60;100.00;99363.04;109397;1253;59796;-71
2024/03/19 04:46:52;;;;;;;30.50;21.90;;;;;;;1.61;100.00;99368.64;109327;1252;60034;-71
2024/03/19 04:49:19;;;;;;;31.10;22.70;;;;;;;1.61;100.00;99368.64;109496;1252;59823;-71
2024/03/19 04:51:46;;;;;;;34.30;25.40;;;;;;;1.62;100.00;99371.41;109461;1252;60089;-70
2024/03/19 04:54:12;;;;;;;33.40;24.40;;;;;;;1.63;100.00;99369.29;109460;1252;64025;-71
2024/03/19 04:56:39;;;;;;;33.80;25.40;;;;;;;1.62;100.00;99376.30;109491;1252;59796;-71
2024/03/19 04:59:05;;;;;;;31.10;22.20;;;;;;;1.62;100.00;99375.79;109450;1252;59887;-71
2024/03/19 05:01:32;;;;;;;29.60;21.70;;;;;;;1.61;100.00;99378.27;109250;1253;59800;-72
2024/03/19 05:03:58;;;;;;;33.30;23.20;;;;;;;1.62;100.00;99384.38;109507;1251;59803;-70
2024/03/19 05:06:24;;;;;;;32.90;24.00;;;;;;;1.63;100.00;99386.79;109452;1252;60204;-70
2024/03/19 05:08:51;;;;;;;29.80;20.90;;;;;;;1.64;100.00;99385.88;109501;1251;59801;-71
2024/03/19 05:11:17;;;;;;;32.20;22.20;;;;;;;1.66;100.00;99389.17;109486;1252;59841;-71
2024/03/19 05:13:43;;;;;;;35.50;24.00;;;;;;;1.67;100.00;99391.60;109458;1252;60077;-71
2024/03/19 05:16:10;;;;;;;32.10;25.10;;;;;;;1.68;100.00;99391.91;109466;1252;59810;-71
2024/03/19 05:18:37;;;;;;;38.10;25.50;;;;;;;1.70;100.00;99399.39;109398;1252;59911;-72
2024/03/19 05:21:03;;;;;;;32.60;24.30;;;;;;;1.68;100.00;99402.95;109460;1252;59806;-71
2024/03/19 05:23:30;;;;;;;36.80;25.40;;;;;;;1.67;100.00;99400.36;109469;1252;59756;-72
2024/03/19 05:25:57;;;;;;;36.40;25.90;;;;;;;1.66;100.00;99400.03;108703;1251;1002941;-71
2024/03/19 05:28:23;;;;;;;37.50;27.40;;;;;;;1.67;100.00;99401.77;109519;1252;59931;-70
2024/03/19 05:30:50;;;;;;;37.90;25.90;;;;;;;1.69;100.00;99400.49;109288;1252;59915;-72
2024/03/19 05:33:16;;;;;;;39.20;26.80;;;;;;;1.69;100.00;99401.88;109419;1252;60005;-72
2024/03/19 05:35:42;;;;;;;35.80;26.10;;;;;;;1.72;100.00;99404.09;109426;1252;60715;-72
2024/03/19 05:38:09;;;;;;;36.50;25.90;;;;;;;1.75;100.00;99408.03;108671;1252;1006454;-70
2024/03/19 05:40:35;;;;;;;35.80;25.60;;;;;;;1.78;100.00;99408.33;109461;1252;59821;-70
2024/03/19 05:43:02;;;;;;;37.10;27.20;;;;;;;1.82;100.00;99408.73;109422;1252;59892;-71
2024/03/19 05:45:31;;;;;;;36.00;26.40;;;;;;;1.87;100.00;99408.98;109418;1252;59766;-71
2024/03/19 05:47:57;;;;;;;35.70;24.00;;;;;;;1.91;100.00;99414.66;109254;1252;60877;-71
2024/03/19 05:50:24;;;;;;;36.90;26.00;;;;;;;1.94;100.00;99413.70;109451;1252;66781;-72
2024/03/19 05:52:50;;;;;;;39.10;27.20;;;;;;;1.95;100.00;99416.30;109478;1252;59828;-71
2024/03/19 05:55:17;;;;;;;39.10;27.80;;;;;;;1.96;100.00;99413.81;109431;1252;59842;-72
2024/03/19 05:57:43;;;;;;;40.60;27.80;;;;;;;1.98;100.00;99419.75;109436;1251;59752;-71
2024/03/19 06:00:13;;;;;;;39.40;26.90;;;;;;;2.02;100.00;99418.05;109483;1252;59819;-71
2024/03/19 06:02:39;;;;;;;41.40;27.00;;;;;;;2.08;100.00;99419.83;109454;1252;66853;-71
2024/03/19 06:05:08;;;;;;;39.50;26.60;;;;;;;2.15;100.00;99423.15;109478;1252;60691;-71
2024/03/19 06:07:34;;;;;;;34.70;26.30;;;;;;;2.19;100.00;99423.74;109452;1252;65168;-71
2024/03/19 06:10:01;;;;;;;36.20;26.40;;;;;;;2.24;100.00;99420.67;109438;1252;59745;-71
2024/03/19 06:12:27;;;;;;;40.50;27.00;;;;;;;2.26;100.00;99423.94;109448;1252;59960;-72
2024/03/19 06:14:53;;;;;;;36.70;27.20;;;;;;;2.28;100.00;99427.57;108678;1252;1002296;-72
2024/03/19 06:17:20;;;;;;;35.70;26.10;;;;;;;2.31;100.00;99427.46;109435;1252;59813;-72
2024/03/19 06:19:47;;;;;;;36.40;26.10;;;;;;;2.34;100.00;99426.88;109272;1253;59921;-71
2024/03/19 06:22:13;;;;;;;34.20;25.30;;;;;;;2.37;100.00;99427.67;109430;1252;59762;-71
2024/03/19 06:24:39;;;;;;;40.70;28.00;;;;;;;2.41;100.00;99429.16;109508;1252;59892;-71
2024/03/19 06:27:06;;;;;;;37.20;26.40;;;;;;;2.47;100.00;99429.15;109453;1252;59815;-72
2024/03/19 06:29:32;;;;;;;37.50;27.70;;;;;;;2.56;100.00;99430.98;109472;1252;59904;-71
2024/03/19 06:31:58;;;;;;;34.30;25.70;;;;;;;2.65;100.00;99429.54;109442;1252;59778;-71
2024/03/19 06:34:25;;;;;;;35.50;27.20;;;;;;;2.70;100.00;99428.01;109474;1252;59811;-71
2024/03/19 06:36:52;;;;;;;35.40;26.80;;;;;;;2.75;100.00;99435.58;109497;1252;59845;-72
2024/03/19 06:39:19;;;;;;;36.60;27.70;;;;;;;2.84;100.00;99436.71;109456;1252;67675;-72
2024/03/19 06:41:46;;;;;;;36.10;27.10;;;;;;;2.92;100.00;99438.06;109476;1252;60127;-71
2024/03/19 06:44:12;;;;;;;38.60;27.60;;;;;;;2.96;100.00;99442.00;109410;1252;59843;-73
2024/03/19 06:46:38;;;;;;;35.00;26.10;;;;;;;3.00;100.00;99443.80;109446;1252;59754;-70
2024/03/19 06:49:05;;;;;;;35.40;26.60;;;;;;;3.05;100.00;99449.45;109469;1252;59837;-71
2024/03/19 06:51:31;;;;;;;32.30;24.30;;;;;;;3.10;100.00;99450.17;109431;1252;59813;-72
2024/03/19 06:53:58;;;;;;;34.50;25.40;;;;;;;3.19;100.00;99451.32;109468;1252;59881;-72
2024/03/19 06:56:25;;;;;;;32.30;25.20;;;;;;;3.26;100.00;99450.41;109442;1251;59836;-72
2024/03/19 06:58:51;;;;;;;31.70;26.10;;;;;;;3.34;100.00;99454.77;109272;1252;59701;-72
2024/03/19 07:01:18;;;;;;;32.10;25.20;;;;;;;3.41;100.00;99454.20;109466;1252;59775;-71
2024/03/19 07:03:45;;;;;;;30.80;24.20;;;;;;;3.45;100.00;99459.52;109410;1252;60666;-72
2024/03/19 07:06:11;;;;;;;28.20;22.70;;;;;;;3.47;100.00;99462.07;109483;1252;59798;-71
2024/03/19 07:08:39;;;;;;;27.40;22.30;;;;;;;3.51;100.00;99465.30;109474;1252;59938;-71
2024/03/19 07:11:07;;;;;;;27.50;22.00;;;;;;;3.53;100.00;99469.10;109443;1252;59748;-72
2024/03/19 07:13:35;;;;;;;28.80;23.00;;;;;;;3.50;100.00;99469.36;109473;1252;59679;-72
2024/03/19 07:16:01;;;;;;;26.20;21.20;;;;;;;3.49;100.00;99472.89;109505;1252;65666;-71
2024/03/19 07:18:27;;;;;;;26.90;20.90;;;;;;;3.53;100.00;99473.31;109483;1252;59934;-72
2024/03/19 07:20:55;;;;;;;25.00;21.00;;;;;;;3.54;100.00;99473.99;109496;1252;59800;-71
2024/03/19 07:23:22;;;;;;;22.80;19.20;;;;;;;3.52;100.00;99477.20;109482;1252;59754;-72
2024/03/19 07:25:48;;;;;;;22.50;19.10;;;;;;;3.57;100.00;99480.59;109483;1252;59823;-71
2024/03/19 07:28:16;;;;;;;24.10;20.00;;;;;;;3.63;100.00;99487.06;109478;1251;59940;-72
2024/03/19 07:30:42;;;;;;;24.60;20.40;;;;;;;3.68;100.00;99486.38;109472;1252;59775;-72
2024/03/19 07:33:08;;;;;;;23.30;19.20;;;;;;;3.75;100.00;99488.80;109461;1252;59881;-72
2024/03/19 07:35:56;;;;;;;24.00;20.00;;;;;;;3.84;100.00;99485.88;109437;1251;59912;-72
2024/03/19 07:38:22;;;;;;;23.70;19.90;;;;;;;3.90;100.00;99486.91;109460;1252;59682;-72
2024/03/19 07:40:49;;;;;;;22.20;19.40;;;;;;;3.98;100.00;99490.70;109481;1252;60291;-71
2024/03/19 07:43:18;;;;;;;23.40;19.20;;;;;;;4.11;100.00;99491.52;109490;1252;59818;-72
2024/03/19 07:45:44;;;;;;;23.40;20.10;;;;;;;4.33;100.00;99490.98;109199;1252;62657;-72
2024/03/19 07:48:12;;;;;;;20.90;18.00;;;;;;;4.60;100.00;99491.81;109516;1252;59795;-72
2024/03/19 07:50:40;;;;;;;21.80;17.50;;;;;;;4.82;100.00;99491.39;109538;1252;60046;-72
2024/03/19 07:53:07;;;;;;;21.20;17.30;;;;;;;4.91;100.00;99492.50;109498;1252;66544;-73
2024/03/19 07:55:33;;;;;;;19.50;16.50;;;;;;;5.02;100.00;99491.39;109460;1253;60136;-72
2024/03/19 07:58:00;;;;;;;20.60;17.20;;;;;;;5.16;100.00;99494.90;109479;1252;59843;-72
2024/03/19 08:00:27;;;;;;;17.90;15.80;;;;;;;5.30;100.00;99494.77;109472;1252;59941;-71
2024/03/19 08:02:53;;;;;;;21.80;17.30;;;;;;;5.34;100.00;99499.21;109476;1252;59664;-72
2024/03/19 08:05:19;;;;;;;19.60;16.10;;;;;;;5.31;100.00;99499.13;109481;1253;60280;-73
2024/03/19 08:07:46;;;;;;;18.30;16.20;;;;;;;5.35;100.00;99499.86;109420;1252;59819;-71
2024/03/19 08:10:13;;;;;;;18.40;16.60;;;;;;;5.42;100.00;99502.76;109468;1252;63017;-71
2024/03/19 08:12:40;;;;;;;17.70;15.60;;;;;;;5.41;100.00;99503.34;109246;1253;59808;-72
2024/03/19 08:15:07;;;;;;;18.50;15.00;;;;;;;5.39;100.00;99502.88;109473;1252;59998;-72
2024/03/19 08:17:33;;;;;;;19.60;15.90;;;;;;;5.46;100.00;99505.63;109430;1252;66928;-72
2024/03/19 08:20:00;;;;;;;18.60;15.90;;;;;;;5.63;100.00;99505.33;109252;1253;59864;-72
2024/03/19 08:22:27;;;;;;;17.90;16.00;;;;;;;5.79;100.00;99501.19;109457;1252;62883;-72
2024/03/19 08:24:53;;;;;;;19.70;16.60;;;;;;;5.93;99.93;99502.57;109503;1252;59762;-72
2024/03/19 08:27:20;;;;;;;18.00;15.60;;;;;;;5.99;98.84;99505.88;109451;1252;59973;-71
2024/03/19 08:29:47;;;;;;;17.10;15.00;;;;;;;5.90;96.93;99505.48;109473;1252;65423;-70
2024/03/19 08:32:13;;;;;;;16.10;14.30;;;;;;;5.79;97.45;99504.31;109480;1252;60321;-72
2024/03/19 08:34:40;;;;;;;18.80;15.60;;;;;;;5.71;96.68;99503.23;109492;1252;59786;-70
2024/03/19 08:37:06;;;;;;;17.60;15.10;;;;;;;5.66;96.49;99506.09;109447;1252;59795;-71
2024/03/19 08:39:33;;;;;;;16.80;14.90;;;;;;;5.66;96.67;99505.39;109524;1252;59853;-71
2024/03/19 08:42:00;;;;;;;17.50;15.30;;;;;;;5.67;95.99;99508.52;109446;1252;66876;-71
2024/03/19 08:44:27;;;;;;;16.40;14.60;;;;;;;5.67;95.99;99506.91;109533;1252;59892;-72
2024/03/19 08:46:53;;;;;;;16.50;14.70;;;;;;;5.76;96.01;99506.77;109451;1252;59947;-71
2024/03/19 08:49:20;;;;;;;14.40;12.90;;;;;;;5.87;96.42;99506.84;109227;1253;59832;-72
2024/03/19 08:51:46;;;;;;;13.60;12.20;;;;;;;6.01;95.68;99504.57;109522;1252;59728;-72
2024/03/19 08:54:13;;;;;;;15.10;13.50;;;;;;;6.13;95.63;99507.63;109493;1252;59825;-72
2024/03/19 08:56:39;;;;;;;13.70;12.30;;;;;;;6.19;94.45;99508.27;109485;1252;59841;-72
2024/03/19 08:59:05;;;;;;;14.60;12.80;;;;;;;6.17;93.82;99507.81;109210;1253;60221;-71
2024/03/19 09:01:32;;;;;;;15.60;13.30;;;;;;;6.08;92.36;99512.40;109533;1252;59838;-71
2024/03/19 09:03:59;;;;;;;16.30;12.30;;;;;;;5.98;92.39;99513.67;109500;1253;59834;-71
2024/03/19 09:06:25;;;;;;;14.60;13.10;;;;;;;5.92;92.04;99510.02;109478;1252;74560;-73
2024/03/19 09:08:53;;;;;;;16.30;12.60;;;;;;;5.91;92.40;99512.52;109525;1252;60171;-72
2024/03/19 09:11:19;;;;;;;15.50;13.80;;;;;;;5.90;92.16;99516.26;109428;1253;63865;-71
2024/03/19 09:13:45;;;;;;;14.50;12.60;;;;;;;5.84;91.43;99517.71;109461;1252;59736;-71
2024/03/19 09:16:13;;;;;;;16.30;13.90;;;;;;;5.67;90.03;99518.21;109454;1252;59789;-72
2024/03/19 09:18:41;;;;;;;15.20;13.30;;;;;;;5.50;91.10;99523.96;109486;1252;65359;-72
2024/03/19 09:21:09;;;;;;;17.90;14.70;;;;;;;5.49;91.98;99519.79;109255;1252;59862;-72
2024/03/19 09:23:38;;;;;;;14.20;12.50;;;;;;;5.56;92.35;99522.85;109469;1252;66378;-72
2024/03/19 09:26:05;;;;;;;16.30;14.00;;;;;;;5.65;92.10;99521.82;109475;1252;59685;-72
2024/03/19 09:28:32;;;;;;;21.10;15.10;;;;;;;5.75;92.06;99522.11;109524;1252;59828;-72
2024/03/19 09:30:59;;;;;;;18.40;13.90;;;;;;;5.90;91.66;99522.96;109525;1252;66934;-72
2024/03/19 09:33:26;;;;;;;28.90;18.30;;;;;;;6.00;90.36;99523.68;109325;1252;60405;-72
2024/03/19 09:35:52;;;;;;;16.20;13.30;;;;;;;6.11;89.91;99525.15;109517;1252;62841;-72
2024/03/19 09:38:19;;;;;;;11.70;10.60;;;;;;;6.30;89.86;99528.60;109462;1253;59890;-73
2024/03/19 09:40:53;;;;;;;11.90;10.70;;;;;;;6.54;88.21;99530.81;109444;1256;59750;-73
2024/03/19 09:43:23;;;;;;;11.50;10.40;;;;;;;6.72;87.27;99527.23;109505;1252;66517;-72
2024/03/19 09:45:51;;;;;;;14.50;12.60;;;;;;;6.90;86.52;99530.16;109516;1252;61052;-72
2024/03/19 09:48:20;;;;;;;13.90;11.70;;;;;;;7.08;85.76;99529.92;109489;1252;64073;-71
2024/03/19 09:50:47;;;;;;;12.20;10.90;;;;;;;7.25;85.68;99533.01;109476;1252;59767;-71
2024/03/19 09:53:24;;;;;;;10.90;9.80;;;;;;;7.47;85.34;99532.05;109496;1252;59891;-71
2024/03/19 09:55:53;;;;;;;10.70;9.40;;;;;;;7.67;84.55;99531.66;109458;1251;65646;-71
2024/03/19 09:58:22;;;;;;;9.80;8.70;;;;;;;7.80;81.53;99536.36;109570;1252;60110;-71
2024/03/19 10:00:52;;;;;;;9.80;8.80;;;;;;;7.79;81.09;99531.98;109516;1252;63767;-72
2024/03/19 10:03:18;;;;;;;10.60;9.60;;;;;;;7.90;82.03;99530.91;109389;1252;156635;-72
2024/03/19 10:05:45;;;;;;;10.80;9.70;;;;;;;8.00;81.00;99527.95;109544;1252;60211;-72
2024/03/19 10:08:17;;;;;;;10.40;9.40;;;;;;;8.14;81.42;99526.78;109489;1252;66972;-71
2024/03/19 10:10:47;;;;;;;10.30;9.00;;;;;;;8.49;82.25;99522.22;109447;1253;59805;-72
2024/03/19 10:13:14;;;;;;;11.00;9.90;;;;;;;8.95;80.10;99519.75;109496;1252;64166;-71
2024/03/19 10:15:40;;;;;;;11.80;10.30;;;;;;;8.99;77.77;99519.17;109514;1252;60138;-73
2024/03/19 10:18:08;;;;;;;11.40;10.20;;;;;;;8.85;77.36;99522.03;109518;1252;59764;-71
2024/03/19 10:20:39;;;;;;;12.40;11.10;;;;;;;8.60;76.70;99522.96;109511;1252;66782;-72
2024/03/19 10:23:06;;;;;;;11.00;9.80;;;;;;;8.39;76.45;99522.76;109471;1252;59747;-72
2024/03/19 10:25:36;;;;;;;11.10;10.00;;;;;;;8.27;76.26;99519.61;109508;1252;63162;-72
2024/03/19 10:28:06;;;;;;;10.90;9.80;;;;;;;8.19;76.64;99521.95;109529;1252;59822;-72
2024/03/19 10:30:32;;;;;;;13.00;11.60;;;;;;;8.11;76.14;99524.27;109490;1252;59778;-73
2024/03/19 10:33:04;;;;;;;13.70;11.80;;;;;;;7.98;76.64;99525.42;109508;1253;59738;-72
2024/03/19 10:35:31;;;;;;;14.70;13.10;;;;;;;7.87;76.53;99524.35;109509;1253;59794;-72
2024/03/19 10:37:57;;;;;;;14.10;12.60;;;;;;;7.76;75.94;99528.77;109276;1252;62629;-71
2024/03/19 10:40:24;;;;;;;13.20;11.70;;;;;;;7.71;76.51;99525.79;109504;1253;61873;-72
2024/03/19 10:42:51;;;;;;;10.50;9.50;;;;;;;7.66;75.30;99526.75;109559;1252;59816;-71
2024/03/19 10:45:20;;;;;;;10.50;9.40;;;;;;;7.61;75.33;99528.23;109577;1252;66160;-71
2024/03/19 10:47:48;;;;;;;12.30;9.30;;;;;;;7.62;74.56;99528.66;109289;1252;60138;-72
2024/03/19 10:50:17;;;;;;;9.00;8.10;;;;;;;7.49;73.66;99531.42;109520;1252;71459;-72
2024/03/19 10:52:56;;;;;;;9.20;8.30;;;;;;;7.38;74.44;99534.24;109532;1252;59758;-72
2024/03/19 10:55:24;;;;;;;10.10;9.10;;;;;;;7.25;74.49;99534.63;109528;1253;59759;-72
2024/03/19 10:57:50;;;;;;;9.70;8.70;;;;;;;7.12;74.07;99535.02;109538;1252;65731;-71
2024/03/19 11:00:22;;;;;;;13.20;9.70;;;;;;;6.95;73.39;99535.08;109532;1253;59750;-72
2024/03/19 11:02:50;;;;;;;12.20;9.50;;;;;;;6.88;73.85;99533.08;109536;1252;64053;-71
2024/03/19 11:05:19;;;;;;;10.60;9.50;;;;;;;7.02;74.02;99533.70;109512;1252;59769;-71
2024/03/19 11:07:48;;;;;;;10.80;9.10;;;;;;;7.29;73.59;99533.91;109516;1253;59819;-71
2024/03/19 11:10:21;;;;;;;11.60;8.60;;;;;;;7.54;72.17;99535.09;109416;1252;66949;-72
2024/03/19 11:12:54;;;;;;;10.80;8.90;;;;;;;7.77;71.99;99532.80;109527;1252;60156;-72